createdAt,value
2022-12-28T00:00:43.094Z,88.26
2022-12-28T00:01:43.039Z,88.06
2022-12-28T00:02:43.078Z,87.85
2022-12-28T00:03:43.031Z,87.85
2022-12-28T00:04:42.988Z,87.95
2022-12-28T00:05:43.019Z,88.06
2022-12-28T00:06:43.007Z,87.65
2022-12-28T00:07:42.975Z,87.68
2022-12-28T00:08:42.947Z,87.74
2022-12-28T00:09:42.967Z,87.65
2022-12-28T00:11:07.554Z,87.44
2022-12-28T00:11:43.972Z,87.44
2022-12-28T00:12:42.939Z,87.65
2022-12-28T00:13:42.875Z,87.74
2022-12-28T00:14:42.869Z,87.44
2022-12-28T00:15:42.855Z,87.65
2022-12-28T00:16:42.917Z,87.74
2022-12-28T00:17:42.860Z,87.54
2022-12-28T00:18:42.802Z,87.34
2022-12-28T00:19:42.822Z,87.13
2022-12-28T00:20:42.796Z,86.20
2022-12-28T00:21:42.784Z,85.78
2022-12-28T00:22:42.787Z,85.17
2022-12-28T00:23:42.745Z,84.65
2022-12-28T00:24:42.728Z,84.23
2022-12-28T00:25:42.716Z,83.41
2022-12-28T00:26:42.716Z,82.89
2022-12-28T00:27:42.743Z,82.28
2022-12-28T00:28:42.679Z,81.24
2022-12-28T00:29:42.697Z,81.45
2022-12-28T00:30:42.694Z,81.04
2022-12-28T00:31:42.669Z,80.52
2022-12-28T00:32:42.646Z,79.69
2022-12-28T00:33:42.630Z,80.15
2022-12-28T00:34:42.628Z,79.18
2022-12-28T00:35:42.631Z,78.91
2022-12-28T00:37:11.144Z,78.66
2022-12-28T00:37:43.638Z,78.39
2022-12-28T00:38:42.540Z,77.87
2022-12-28T00:39:42.556Z,77.87
2022-12-28T00:40:42.544Z,77.77
2022-12-28T00:41:42.527Z,78.18
2022-12-28T00:42:42.546Z,78.49
2022-12-28T00:43:42.511Z,77.98
2022-12-28T00:44:42.487Z,77.46
2022-12-28T00:45:42.517Z,77.77
2022-12-28T00:46:42.441Z,77.77
2022-12-28T00:47:42.467Z,77.56
2022-12-28T00:48:42.409Z,77.77
2022-12-28T00:49:42.413Z,77.67
2022-12-28T00:50:42.388Z,77.87
2022-12-28T00:51:42.407Z,77.73
2022-12-28T00:52:42.389Z,78.14
2022-12-28T00:53:42.369Z,78.05
2022-12-28T00:54:42.353Z,78.05
2022-12-28T00:55:42.320Z,78.45
2022-12-28T00:56:42.321Z,78.45
2022-12-28T00:57:42.339Z,78.25
2022-12-28T00:58:42.284Z,77.94
2022-12-28T00:59:42.292Z,77.73
2022-12-28T01:00:42.316Z,77.22
2022-12-28T01:01:42.329Z,77.53
2022-12-28T01:02:42.281Z,77.42
2022-12-28T01:03:42.214Z,77.11
2022-12-28T01:04:42.214Z,76.90
2022-12-28T01:05:42.200Z,76.60
2022-12-28T01:06:42.201Z,76.70
2022-12-28T01:07:42.199Z,75.95
2022-12-28T01:08:42.150Z,75.46
2022-12-28T01:09:42.163Z,75.36
2022-12-28T01:10:42.145Z,75.26
2022-12-28T01:11:42.129Z,74.63
2022-12-28T01:12:42.135Z,74.43
2022-12-28T01:13:42.091Z,74.12
2022-12-28T01:14:42.070Z,74.19
2022-12-28T01:15:42.073Z,74.02
2022-12-28T01:16:42.086Z,73.71
2022-12-28T01:17:42.061Z,73.50
2022-12-28T01:18:42.030Z,73.29
2022-12-28T01:19:42.001Z,73.16
2022-12-28T01:20:41.990Z,72.99
2022-12-28T01:21:42.001Z,72.74
2022-12-28T01:22:41.987Z,72.67
2022-12-28T01:23:41.970Z,72.47
2022-12-28T01:24:41.962Z,72.44
2022-12-28T01:25:41.944Z,72.78
2022-12-28T01:26:41.955Z,72.85
2022-12-28T01:27:41.969Z,72.85
2022-12-28T01:28:41.906Z,72.74
2022-12-28T01:29:41.887Z,73.05
2022-12-28T01:30:41.875Z,73.26
2022-12-28T01:31:41.930Z,73.26
2022-12-28T01:32:41.848Z,73.26
2022-12-28T01:33:41.817Z,73.47
2022-12-28T01:34:41.820Z,73.57
2022-12-28T01:35:41.848Z,73.47
2022-12-28T01:36:41.790Z,73.68
2022-12-28T01:37:41.784Z,73.68
2022-12-28T01:38:41.757Z,73.68
2022-12-28T01:39:41.759Z,73.77
2022-12-28T01:40:41.725Z,73.57
2022-12-28T01:41:41.727Z,73.68
2022-12-28T01:42:41.734Z,73.98
2022-12-28T01:43:41.727Z,73.98
2022-12-28T01:44:41.697Z,74.08
2022-12-28T01:45:41.702Z,74.29
2022-12-28T01:46:41.685Z,74.46
2022-12-28T01:47:41.679Z,74.77
2022-12-28T01:48:41.624Z,74.46
2022-12-28T01:49:41.603Z,74.77
2022-12-28T01:50:41.626Z,75.18
2022-12-28T01:51:41.591Z,74.88
2022-12-28T01:52:41.575Z,74.77
2022-12-28T01:53:41.559Z,74.36
2022-12-28T01:54:41.568Z,74.77
2022-12-28T01:55:41.546Z,74.67
2022-12-28T01:56:41.537Z,74.67
2022-12-28T01:57:41.515Z,74.46
2022-12-28T01:58:41.510Z,74.67
2022-12-28T01:59:41.497Z,74.57
2022-12-28T02:00:41.492Z,74.57
2022-12-28T02:01:41.548Z,74.67
2022-12-28T02:02:41.582Z,74.57
2022-12-28T02:03:41.436Z,74.84
2022-12-28T02:04:41.452Z,75.18
2022-12-28T02:05:41.395Z,75.05
2022-12-28T02:06:41.422Z,75.26
2022-12-28T02:07:41.405Z,75.05
2022-12-28T02:08:41.377Z,75.15
2022-12-28T02:09:41.372Z,75.15
2022-12-28T02:10:45.733Z,75.26
2022-12-28T02:11:41.325Z,75.15
2022-12-28T02:12:41.354Z,75.15
2022-12-28T02:13:41.287Z,75.26
2022-12-28T02:14:41.276Z,75.56
2022-12-28T02:15:41.284Z,75.77
2022-12-28T02:16:41.281Z,75.87
2022-12-28T02:17:41.266Z,76.18
2022-12-28T02:18:41.226Z,76.18
2022-12-28T02:19:41.241Z,76.08
2022-12-28T02:20:41.207Z,76.49
2022-12-28T02:21:41.184Z,76.49
2022-12-28T02:22:41.218Z,76.18
2022-12-28T02:23:41.148Z,76.04
2022-12-28T02:24:41.154Z,76.04
2022-12-28T02:25:41.124Z,75.98
2022-12-28T02:26:41.121Z,75.84
2022-12-28T02:27:41.109Z,75.84
2022-12-28T02:28:41.103Z,75.94
2022-12-28T02:29:41.085Z,76.18
2022-12-28T02:30:41.118Z,76.25
2022-12-28T02:31:41.074Z,76.04
2022-12-28T02:32:41.059Z,76.04
2022-12-28T02:33:41.024Z,75.84
2022-12-28T02:34:41.057Z,76.15
2022-12-28T02:35:41.008Z,76.25
2022-12-28T02:36:40.988Z,76.35
2022-12-28T02:37:40.998Z,76.56
2022-12-28T02:38:40.976Z,76.56
2022-12-28T02:39:40.947Z,76.04
2022-12-28T02:40:40.940Z,76.15
2022-12-28T02:41:40.929Z,75.94
2022-12-28T02:42:40.940Z,75.84
2022-12-28T02:43:40.907Z,75.84
2022-12-28T02:44:40.897Z,75.63
2022-12-28T02:45:40.930Z,75.84
2022-12-28T02:46:40.901Z,75.73
2022-12-28T02:47:40.857Z,75.84
2022-12-28T02:48:40.837Z,76.04
2022-12-28T02:49:40.814Z,76.15
2022-12-28T02:50:40.820Z,76.15
2022-12-28T02:51:40.800Z,75.94
2022-12-28T02:52:40.779Z,75.84
2022-12-28T02:53:40.775Z,75.94
2022-12-28T02:54:40.751Z,75.63
2022-12-28T02:55:40.739Z,75.32
2022-12-28T02:56:40.778Z,75.43
2022-12-28T02:57:40.722Z,75.43
2022-12-28T02:58:40.748Z,75.32
2022-12-28T02:59:40.715Z,75.32
2022-12-28T03:00:40.684Z,75.22
2022-12-28T03:01:40.774Z,75.43
2022-12-28T03:02:40.746Z,75.12
2022-12-28T03:03:40.619Z,75.22
2022-12-28T03:04:40.621Z,75.22
2022-12-28T03:05:40.625Z,75.32
2022-12-28T03:06:40.640Z,75.08
2022-12-28T03:07:40.585Z,74.98
2022-12-28T03:08:40.582Z,75.08
2022-12-28T03:09:40.539Z,75.39
2022-12-28T03:10:40.545Z,75.29
2022-12-28T03:11:40.541Z,75.39
2022-12-28T03:12:40.519Z,75.29
2022-12-28T03:13:40.502Z,75.49
2022-12-28T03:14:40.490Z,75.29
2022-12-28T03:15:40.485Z,75.08
2022-12-28T03:16:40.508Z,75.08
2022-12-28T03:17:40.452Z,75.18
2022-12-28T03:18:40.432Z,75.18
2022-12-28T03:19:40.420Z,75.49
2022-12-28T03:20:40.453Z,75.60
2022-12-28T03:21:40.424Z,75.39
2022-12-28T03:22:40.388Z,75.60
2022-12-28T03:23:40.374Z,75.90
2022-12-28T03:24:40.363Z,76.32
2022-12-28T03:25:40.353Z,76.21
2022-12-28T03:26:40.355Z,76.11
2022-12-28T03:27:40.301Z,76.11
2022-12-28T03:28:40.301Z,76.11
2022-12-28T03:29:40.312Z,76.21
2022-12-28T03:30:40.478Z,76.73
2022-12-28T03:31:40.280Z,76.93
2022-12-28T03:32:40.250Z,77.00
2022-12-28T03:33:40.231Z,77.21
2022-12-28T03:34:40.264Z,77.42
2022-12-28T03:35:40.222Z,77.62
2022-12-28T03:36:40.229Z,77.72
2022-12-28T03:37:40.243Z,77.72
2022-12-28T03:38:40.174Z,78.14
2022-12-28T03:39:40.164Z,78.24
2022-12-28T03:40:40.174Z,78.30
2022-12-28T03:41:40.162Z,78.41
2022-12-28T03:42:40.120Z,78.72
2022-12-28T03:43:40.120Z,78.41
2022-12-28T03:44:40.093Z,78.51
2022-12-28T03:45:46.546Z,78.82
2022-12-28T03:46:41.102Z,79.33
2022-12-28T03:47:40.078Z,79.33
2022-12-28T03:48:40.067Z,79.50
2022-12-28T03:49:40.053Z,79.71
2022-12-28T03:50:40.017Z,79.30
2022-12-28T03:51:39.991Z,79.40
2022-12-28T03:52:40.025Z,79.71
2022-12-28T03:53:39.972Z,79.71
2022-12-28T03:54:39.973Z,79.81
2022-12-28T03:55:39.950Z,79.81
2022-12-28T03:56:39.943Z,80.22
2022-12-28T03:57:39.931Z,80.43
2022-12-28T03:58:39.929Z,80.53
2022-12-28T03:59:39.895Z,80.49
2022-12-28T04:00:39.891Z,80.91
2022-12-28T04:01:39.966Z,80.91
2022-12-28T04:02:39.913Z,81.42
2022-12-28T04:03:39.847Z,81.52
2022-12-28T04:04:39.852Z,81.52
2022-12-28T04:05:39.856Z,81.52
2022-12-28T04:06:39.845Z,81.52
2022-12-28T04:07:39.794Z,81.69
2022-12-28T04:08:39.766Z,81.79
2022-12-28T04:09:39.776Z,81.69
2022-12-28T04:10:39.748Z,82.00
2022-12-28T04:11:39.805Z,82.41
2022-12-28T04:12:39.716Z,82.51
2022-12-28T04:13:39.713Z,82.51
2022-12-28T04:14:39.698Z,82.62
2022-12-28T04:15:39.796Z,82.92
2022-12-28T04:16:39.729Z,83.13
2022-12-28T04:17:39.689Z,83.13
2022-12-28T04:18:39.640Z,83.70
2022-12-28T04:19:39.664Z,83.61
2022-12-28T04:20:39.627Z,83.40
2022-12-28T04:21:39.622Z,82.89
2022-12-28T04:22:39.610Z,83.40
2022-12-28T04:23:39.607Z,83.91
2022-12-28T04:24:39.588Z,83.81
2022-12-28T04:25:39.567Z,83.61
2022-12-28T04:26:39.659Z,84.01
2022-12-28T04:27:39.548Z,83.91
2022-12-28T04:28:39.526Z,84.22
2022-12-28T04:29:39.520Z,84.53
2022-12-28T04:30:39.478Z,84.22
2022-12-28T04:31:39.516Z,84.12
2022-12-28T04:32:39.482Z,84.28
2022-12-28T04:33:39.438Z,85.11
2022-12-28T04:34:44.743Z,84.69
2022-12-28T04:35:40.429Z,85.11
2022-12-28T04:36:39.422Z,84.69
2022-12-28T04:37:39.410Z,84.18
2022-12-28T04:38:39.379Z,84.49
2022-12-28T04:39:55.585Z,84.49
2022-12-28T04:40:40.369Z,84.90
2022-12-28T04:41:39.340Z,84.80
2022-12-28T04:42:39.347Z,84.69
2022-12-28T04:43:39.330Z,84.80
2022-12-28T04:44:39.321Z,84.69
2022-12-28T04:45:39.277Z,84.90
2022-12-28T04:46:39.315Z,84.80
2022-12-28T04:47:39.261Z,85.11
2022-12-28T04:48:39.240Z,84.80
2022-12-28T04:49:39.223Z,84.59
2022-12-28T04:50:39.226Z,84.90
2022-12-28T04:51:39.220Z,84.69
2022-12-28T04:52:39.207Z,84.49
2022-12-28T04:53:39.171Z,84.90
2022-12-28T04:54:39.167Z,85.62
2022-12-28T04:55:39.144Z,85.11
2022-12-28T04:56:39.160Z,84.90
2022-12-28T04:57:39.124Z,85.72
2022-12-28T04:58:39.127Z,85.78
2022-12-28T04:59:39.123Z,85.58
2022-12-28T05:00:39.162Z,85.78
2022-12-28T05:01:39.221Z,85.99
2022-12-28T05:02:39.147Z,85.78
2022-12-28T05:03:39.049Z,85.68
2022-12-28T05:04:39.057Z,84.25
2022-12-28T05:05:39.021Z,83.94
2022-12-28T05:06:39.015Z,83.53
2022-12-28T05:07:38.993Z,83.83
2022-12-28T05:08:38.989Z,84.55
2022-12-28T05:09:38.961Z,83.73
2022-12-28T05:10:38.983Z,84.34
2022-12-28T05:11:38.943Z,84.34
2022-12-28T05:12:38.967Z,84.55
2022-12-28T05:13:38.904Z,84.66
2022-12-28T05:14:38.893Z,84.45
2022-12-28T05:15:38.884Z,84.76
2022-12-28T05:16:38.937Z,84.96
2022-12-28T05:17:38.864Z,85.17
2022-12-28T05:18:38.834Z,85.17
2022-12-28T05:19:38.835Z,85.06
2022-12-28T05:20:38.813Z,85.06
2022-12-28T05:21:38.804Z,85.17
2022-12-28T05:22:41.093Z,84.86
2022-12-28T05:23:38.775Z,85.17
2022-12-28T05:24:38.774Z,84.82
2022-12-28T05:25:38.754Z,85.44
2022-12-28T05:26:38.741Z,85.44
2022-12-28T05:27:38.756Z,85.54
2022-12-28T05:28:38.717Z,85.13
2022-12-28T05:29:38.700Z,85.23
2022-12-28T05:30:38.694Z,85.23
2022-12-28T05:31:38.800Z,85.23
2022-12-28T05:32:38.672Z,84.72
2022-12-28T05:33:38.657Z,84.82
2022-12-28T05:34:38.633Z,84.92
2022-12-28T05:35:38.689Z,84.82
2022-12-28T05:36:38.622Z,85.33
2022-12-28T05:37:38.594Z,85.13
2022-12-28T05:38:38.577Z,84.82
2022-12-28T05:39:38.579Z,85.33
2022-12-28T05:40:38.548Z,85.33
2022-12-28T05:41:38.584Z,85.13
2022-12-28T05:42:38.551Z,85.64
2022-12-28T05:43:38.583Z,85.95
2022-12-28T05:44:38.543Z,85.95
2022-12-28T05:45:38.548Z,85.91
2022-12-28T05:46:38.572Z,85.60
2022-12-28T05:47:45.504Z,85.95
2022-12-28T05:48:38.450Z,85.91
2022-12-28T05:49:38.438Z,85.39
2022-12-28T05:50:38.428Z,85.39
2022-12-28T05:51:39.977Z,85.50
2022-12-28T05:52:38.847Z,85.64
2022-12-28T05:53:38.405Z,85.71
2022-12-28T05:54:38.355Z,85.30
2022-12-28T05:55:38.375Z,85.50
2022-12-28T05:56:38.356Z,85.09
2022-12-28T05:57:38.336Z,84.88
2022-12-28T05:58:38.307Z,85.09
2022-12-28T05:59:38.300Z,84.68
2022-12-28T06:00:38.329Z,85.19
2022-12-28T06:01:38.400Z,85.19
2022-12-28T06:02:38.294Z,85.30
2022-12-28T06:03:38.275Z,85.09
2022-12-28T06:04:38.236Z,85.09
2022-12-28T06:05:38.252Z,85.30
2022-12-28T06:06:38.197Z,85.19
2022-12-28T06:07:38.195Z,85.30
2022-12-28T06:08:38.168Z,85.50
2022-12-28T06:09:38.167Z,85.39
2022-12-28T06:10:38.198Z,85.39
2022-12-28T06:11:38.160Z,85.30
2022-12-28T06:12:38.131Z,85.39
2022-12-28T06:13:38.138Z,85.50
2022-12-28T06:14:38.111Z,85.19
2022-12-28T06:15:38.097Z,85.19
2022-12-28T06:16:38.216Z,85.09
2022-12-28T06:17:38.058Z,84.88
2022-12-28T06:18:38.047Z,85.09
2022-12-28T06:19:38.038Z,84.99
2022-12-28T06:20:38.018Z,84.37
2022-12-28T06:21:38.026Z,84.88
2022-12-28T06:22:37.999Z,84.68
2022-12-28T06:23:37.982Z,85.09
2022-12-28T06:24:37.959Z,84.78
2022-12-28T06:25:37.956Z,84.68
2022-12-28T06:26:37.992Z,84.47
2022-12-28T06:27:37.944Z,84.47
2022-12-28T06:28:37.917Z,84.47
2022-12-28T06:29:37.909Z,84.17
2022-12-28T06:30:37.886Z,84.06
2022-12-28T06:31:37.973Z,84.27
2022-12-28T06:32:37.864Z,84.17
2022-12-28T06:33:37.852Z,84.27
2022-12-28T06:34:37.831Z,83.96
2022-12-28T06:35:37.824Z,83.86
2022-12-28T06:36:37.840Z,84.06
2022-12-28T06:37:37.791Z,84.06
2022-12-28T06:38:37.779Z,83.86
2022-12-28T06:39:37.759Z,83.96
2022-12-28T06:41:11.246Z,83.61
2022-12-28T06:41:38.780Z,83.45
2022-12-28T06:42:37.729Z,82.83
2022-12-28T06:43:37.729Z,82.32
2022-12-28T06:44:44.198Z,81.50
2022-12-28T06:45:38.792Z,81.29
2022-12-28T06:46:37.702Z,80.58
2022-12-28T06:47:37.712Z,80.27
2022-12-28T06:48:37.644Z,80.07
2022-12-28T06:49:37.649Z,79.86
2022-12-28T06:50:40.192Z,79.66
2022-12-28T06:51:37.630Z,79.49
2022-12-28T06:52:37.611Z,79.75
2022-12-28T06:53:37.587Z,79.69
2022-12-28T06:54:37.564Z,79.38
2022-12-28T06:55:37.569Z,79.75
2022-12-28T06:56:37.565Z,80.07
2022-12-28T06:57:37.533Z,80.17
2022-12-28T06:58:37.512Z,80.07
2022-12-28T06:59:37.493Z,80.37
2022-12-28T07:00:37.557Z,80.17
2022-12-28T07:01:37.842Z,79.96
2022-12-28T07:02:37.559Z,80.27
2022-12-28T07:03:37.458Z,80.17
2022-12-28T07:04:37.430Z,80.07
2022-12-28T07:05:37.443Z,80.07
2022-12-28T07:06:37.451Z,79.86
2022-12-28T07:07:37.430Z,79.66
2022-12-28T07:08:37.409Z,79.45
2022-12-28T07:09:37.364Z,79.55
2022-12-28T07:10:37.345Z,79.66
2022-12-28T07:11:37.362Z,79.66
2022-12-28T07:12:37.364Z,79.75
2022-12-28T07:13:37.324Z,79.86
2022-12-28T07:14:37.292Z,80.17
2022-12-28T07:15:37.288Z,79.96
2022-12-28T07:17:10.689Z,79.96
2022-12-28T07:18:09.676Z,79.75
2022-12-28T07:19:08.013Z,80.07
2022-12-28T07:20:08.000Z,80.07
2022-12-28T07:21:07.993Z,80.07
2022-12-28T07:22:07.979Z,80.07
2022-12-28T07:23:07.951Z,79.96
2022-12-28T07:24:07.932Z,79.86
2022-12-28T07:25:07.935Z,79.66
2022-12-28T07:26:07.976Z,79.66
2022-12-28T07:27:07.885Z,79.45
2022-12-28T07:28:07.890Z,79.24
2022-12-28T07:29:07.872Z,79.14
2022-12-28T07:30:07.855Z,78.74
2022-12-28T07:31:07.858Z,78.42
2022-12-28T07:32:07.867Z,78.22
2022-12-28T07:33:07.838Z,77.91
2022-12-28T07:34:07.794Z,77.81
2022-12-28T07:35:07.863Z,77.44
2022-12-28T07:36:07.795Z,77.29
2022-12-28T07:37:07.796Z,77.09
2022-12-28T07:38:07.811Z,77.20
2022-12-28T07:39:07.734Z,77.03
2022-12-28T07:40:07.834Z,77.20
2022-12-28T07:41:07.763Z,77.23
2022-12-28T07:42:07.749Z,77.29
2022-12-28T07:43:07.707Z,77.50
2022-12-28T07:44:07.705Z,77.81
2022-12-28T07:45:07.711Z,77.71
2022-12-28T07:46:07.691Z,77.40
2022-12-28T07:47:07.705Z,77.91
2022-12-28T07:48:07.636Z,77.71
2022-12-28T07:49:07.619Z,77.40
2022-12-28T07:50:07.611Z,77.71
2022-12-28T07:51:07.580Z,77.71
2022-12-28T07:52:07.619Z,78.12
2022-12-28T07:53:07.567Z,78.02
2022-12-28T07:54:07.623Z,78.02
2022-12-28T07:55:07.530Z,78.02
2022-12-28T07:56:07.630Z,77.91
2022-12-28T07:57:07.567Z,78.02
2022-12-28T07:58:07.488Z,77.91
2022-12-28T07:59:07.544Z,78.32
2022-12-28T08:00:07.498Z,78.63
2022-12-28T08:01:07.563Z,78.74
2022-12-28T08:02:07.581Z,78.94
2022-12-28T08:03:07.481Z,79.04
2022-12-28T08:04:07.425Z,78.94
2022-12-28T08:05:07.429Z,79.04
2022-12-28T08:06:07.399Z,79.04
2022-12-28T08:07:07.395Z,79.24
2022-12-28T08:08:07.350Z,79.24
2022-12-28T08:09:07.398Z,79.24
2022-12-28T08:10:07.349Z,79.11
2022-12-28T08:11:07.358Z,79.41
2022-12-28T08:12:07.343Z,79.11
2022-12-28T08:13:07.290Z,79.11
2022-12-28T08:14:07.296Z,79.11
2022-12-28T08:15:07.260Z,79.41
2022-12-28T08:16:07.367Z,79.52
2022-12-28T08:17:07.260Z,79.62
2022-12-28T08:18:07.230Z,79.82
2022-12-28T08:19:07.238Z,79.93
2022-12-28T08:20:07.214Z,80.03
2022-12-28T08:21:07.180Z,80.13
2022-12-28T08:22:07.197Z,80.23
2022-12-28T08:23:07.161Z,79.93
2022-12-28T08:24:07.159Z,80.13
2022-12-28T08:25:07.133Z,79.72
2022-12-28T08:26:07.122Z,79.93
2022-12-28T08:27:07.130Z,80.03
2022-12-28T08:28:07.084Z,79.93
2022-12-28T08:29:07.136Z,79.93
2022-12-28T08:30:07.081Z,80.23
2022-12-28T08:31:07.082Z,80.33
2022-12-28T08:32:07.119Z,80.03
2022-12-28T08:33:07.021Z,80.33
2022-12-28T08:34:06.991Z,80.23
2022-12-28T08:35:06.986Z,80.03
2022-12-28T08:36:06.988Z,80.64
2022-12-28T08:37:07.015Z,80.44
2022-12-28T08:38:06.958Z,80.44
2022-12-28T08:39:06.970Z,80.19
2022-12-28T08:40:06.937Z,80.09
2022-12-28T08:41:06.919Z,79.82
2022-12-28T08:42:06.925Z,79.89
2022-12-28T08:43:06.953Z,79.79
2022-12-28T08:44:06.959Z,80.09
2022-12-28T08:45:06.924Z,79.89
2022-12-28T08:46:06.942Z,80.09
2022-12-28T08:47:06.989Z,79.99
2022-12-28T08:48:06.835Z,80.19
2022-12-28T08:49:06.793Z,80.19
2022-12-28T08:50:06.826Z,80.71
2022-12-28T08:51:06.775Z,80.40
2022-12-28T08:52:06.786Z,80.30
2022-12-28T08:53:06.747Z,80.60
2022-12-28T08:54:06.754Z,80.71
2022-12-28T08:55:06.736Z,80.71
2022-12-28T08:56:07.152Z,80.71
2022-12-28T08:57:06.754Z,80.91
2022-12-28T08:58:06.688Z,81.22
2022-12-28T08:59:06.695Z,81.22
2022-12-28T09:00:06.703Z,81.43
2022-12-28T09:01:06.785Z,81.63
2022-12-28T09:02:06.788Z,81.52
2022-12-28T09:03:06.679Z,81.52
2022-12-28T09:04:06.647Z,81.32
2022-12-28T09:05:06.595Z,81.63
2022-12-28T09:06:06.599Z,81.84
2022-12-28T09:07:06.647Z,82.04
2022-12-28T09:08:06.553Z,82.10
2022-12-28T09:09:07.228Z,82.00
2022-12-28T09:10:06.551Z,81.70
2022-12-28T09:11:06.506Z,81.70
2022-12-28T09:12:06.529Z,81.90
2022-12-28T09:13:06.541Z,81.59
2022-12-28T09:14:06.476Z,81.70
2022-12-28T09:15:06.503Z,82.21
2022-12-28T09:16:06.477Z,81.59
2022-12-28T09:17:06.548Z,82.00
2022-12-28T09:18:06.439Z,81.70
2022-12-28T09:19:06.406Z,82.21
2022-12-28T09:20:06.399Z,82.31
2022-12-28T09:21:06.385Z,82.31
2022-12-28T09:22:06.454Z,82.92
2022-12-28T09:23:06.394Z,82.82
2022-12-28T09:24:06.350Z,83.13
2022-12-28T09:25:06.340Z,83.13
2022-12-28T09:26:06.300Z,83.23
2022-12-28T09:27:06.346Z,83.54
2022-12-28T09:28:06.289Z,83.44
2022-12-28T09:29:06.277Z,83.50
2022-12-28T09:30:06.245Z,83.09
2022-12-28T09:31:06.294Z,83.54
2022-12-28T09:32:06.256Z,84.05
2022-12-28T09:33:06.237Z,83.44
2022-12-28T09:35:07.187Z,83.95
2022-12-28T09:36:06.172Z,83.54
2022-12-28T09:37:06.199Z,83.91
2022-12-28T09:38:06.149Z,84.01
2022-12-28T09:39:06.159Z,83.91
2022-12-28T09:40:06.160Z,84.42
2022-12-28T09:41:06.151Z,84.52
2022-12-28T09:42:06.150Z,84.42
2022-12-28T09:43:06.079Z,84.63
2022-12-28T09:44:06.071Z,84.52
2022-12-28T09:45:06.059Z,84.31
2022-12-28T09:46:06.095Z,83.70
2022-12-28T09:47:06.056Z,84.31
2022-12-28T09:48:06.030Z,83.91
2022-12-28T09:49:06.044Z,84.63
2022-12-28T09:50:06.000Z,84.72
2022-12-28T09:51:05.981Z,84.63
2022-12-28T09:52:06.020Z,84.42
2022-12-28T09:53:05.994Z,84.42
2022-12-28T09:54:05.972Z,84.83
2022-12-28T09:55:05.927Z,84.83
2022-12-28T09:56:05.934Z,84.72
2022-12-28T09:57:05.976Z,85.24
2022-12-28T09:58:05.904Z,85.03
2022-12-28T09:59:05.960Z,85.55
2022-12-28T10:00:05.858Z,85.24
2022-12-28T10:01:05.893Z,84.93
2022-12-28T10:02:05.963Z,85.50
2022-12-28T10:03:05.814Z,84.99
2022-12-28T10:04:05.835Z,85.81
2022-12-28T10:05:05.773Z,85.40
2022-12-28T10:06:05.766Z,85.40
2022-12-28T10:07:05.853Z,85.61
2022-12-28T10:08:05.752Z,85.81
2022-12-28T10:09:05.753Z,86.12
2022-12-28T10:10:05.772Z,86.02
2022-12-28T10:11:05.705Z,85.71
2022-12-28T10:12:05.703Z,85.91
2022-12-28T10:13:09.326Z,86.02
2022-12-28T10:14:06.676Z,86.32
2022-12-28T10:15:05.655Z,86.73
2022-12-28T10:16:05.663Z,86.32
2022-12-28T10:17:05.632Z,86.22
2022-12-28T10:18:05.617Z,85.88
2022-12-28T10:19:05.585Z,86.63
2022-12-28T10:20:05.613Z,86.32
2022-12-28T10:21:05.575Z,85.97
2022-12-28T10:22:05.579Z,86.38
2022-12-28T10:23:05.565Z,86.29
2022-12-28T10:24:30.800Z,86.38
2022-12-28T10:25:06.518Z,86.79
2022-12-28T10:26:05.536Z,86.69
2022-12-28T10:27:05.520Z,86.90
2022-12-28T10:28:05.488Z,87.10
2022-12-28T10:29:05.447Z,87.00
2022-12-28T10:30:05.436Z,86.79
2022-12-28T10:31:05.461Z,87.10
2022-12-28T10:32:05.426Z,86.69
2022-12-28T10:33:06.973Z,87.00
2022-12-28T10:34:05.376Z,87.20
2022-12-28T10:35:05.383Z,86.59
2022-12-28T10:36:05.359Z,87.10
2022-12-28T10:37:05.379Z,86.59
2022-12-28T10:38:05.371Z,87.10
2022-12-28T10:39:05.512Z,87.10
2022-12-28T10:40:05.357Z,86.90
2022-12-28T10:41:05.339Z,87.57
2022-12-28T10:42:05.286Z,87.92
2022-12-28T10:43:10.436Z,87.26
2022-12-28T10:44:37.941Z,87.26
2022-12-28T10:45:06.286Z,87.82
2022-12-28T10:46:05.260Z,87.57
2022-12-28T10:47:05.244Z,87.37
2022-12-28T10:48:05.309Z,87.57
2022-12-28T10:49:05.189Z,87.77
2022-12-28T10:51:06.149Z,87.77
2022-12-28T10:52:05.149Z,87.47
2022-12-28T10:53:05.159Z,87.88
2022-12-28T10:54:05.158Z,87.67
2022-12-28T10:55:07.618Z,87.37
2022-12-28T10:56:05.130Z,88.08
2022-12-28T10:57:05.052Z,87.98
2022-12-28T10:58:28.672Z,87.77
2022-12-28T10:59:06.112Z,87.88
2022-12-28T11:00:05.046Z,87.47
2022-12-28T11:01:05.254Z,88.18
2022-12-28T11:02:05.144Z,87.88
2022-12-28T11:03:05.083Z,87.77
2022-12-28T11:04:04.981Z,88.08
2022-12-28T11:05:04.971Z,88.18
2022-12-28T11:06:04.982Z,88.29
2022-12-28T11:07:04.941Z,87.98
2022-12-28T11:08:04.961Z,88.18
2022-12-28T11:09:04.924Z,87.57
2022-12-28T11:10:04.985Z,88.18
2022-12-28T11:11:04.910Z,87.98
2022-12-28T11:12:04.871Z,87.88
2022-12-28T11:13:04.893Z,88.08
2022-12-28T11:14:04.845Z,87.67
2022-12-28T11:15:04.831Z,87.57
2022-12-28T11:16:04.901Z,87.77
2022-12-28T11:17:04.815Z,87.67
2022-12-28T11:18:04.815Z,87.67
2022-12-28T11:19:04.789Z,87.98
2022-12-28T11:20:04.841Z,88.08
2022-12-28T11:21:04.909Z,87.77
2022-12-28T11:22:04.735Z,87.77
2022-12-28T11:23:04.754Z,88.29
2022-12-28T11:24:04.693Z,88.29
2022-12-28T11:25:04.704Z,88.18
2022-12-28T11:26:04.679Z,87.57
2022-12-28T11:27:04.672Z,87.77
2022-12-28T11:28:04.679Z,87.98
2022-12-28T11:29:04.633Z,88.29
2022-12-28T11:30:04.780Z,87.67
2022-12-28T11:31:04.642Z,88.29
2022-12-28T11:32:04.613Z,88.39
2022-12-28T11:33:04.658Z,88.29
2022-12-28T11:34:04.599Z,88.39
2022-12-28T11:35:04.568Z,88.08
2022-12-28T11:36:09.699Z,88.18
2022-12-28T11:37:05.536Z,88.29
2022-12-28T11:38:04.544Z,88.18
2022-12-28T11:39:04.508Z,87.26
2022-12-28T11:40:04.491Z,87.67
2022-12-28T11:41:04.466Z,88.29
2022-12-28T11:42:37.722Z,88.90
2022-12-28T11:43:05.538Z,88.79
2022-12-28T11:44:04.442Z,88.79
2022-12-28T11:45:04.427Z,88.70
2022-12-28T11:46:04.467Z,88.49
2022-12-28T11:47:04.398Z,88.18
2022-12-28T11:48:04.419Z,88.59
2022-12-28T11:49:04.376Z,89.00
2022-12-28T11:50:04.387Z,89.20
2022-12-28T11:51:04.367Z,89.11
2022-12-28T11:52:04.327Z,89.20
2022-12-28T11:53:09.056Z,89.00
2022-12-28T11:54:05.312Z,89.51
2022-12-28T11:55:04.278Z,89.51
2022-12-28T11:56:04.268Z,89.72
2022-12-28T11:57:04.276Z,89.51
2022-12-28T11:58:04.266Z,89.82
2022-12-28T11:59:04.238Z,89.72
2022-12-28T12:00:04.262Z,90.02
2022-12-28T12:01:04.222Z,90.12
2022-12-28T12:02:04.219Z,90.23
2022-12-28T12:03:04.258Z,90.12
2022-12-28T12:04:04.161Z,89.72
2022-12-28T12:05:04.229Z,90.23
2022-12-28T12:06:04.140Z,90.64
2022-12-28T12:07:04.129Z,90.64
2022-12-28T12:08:04.150Z,90.43
2022-12-28T12:09:04.090Z,89.92
2022-12-28T12:10:04.086Z,91.05
2022-12-28T12:11:04.110Z,90.84
2022-12-28T12:12:04.059Z,90.94
2022-12-28T12:13:04.083Z,90.53
2022-12-28T12:14:04.054Z,90.74
2022-12-28T12:15:04.028Z,91.15
2022-12-28T12:16:04.011Z,90.84
2022-12-28T12:17:04.050Z,91.05
2022-12-28T12:18:04.028Z,90.94
2022-12-28T12:19:03.978Z,91.76
2022-12-28T12:20:03.941Z,91.15
2022-12-28T12:21:03.932Z,91.05
2022-12-28T12:22:03.912Z,91.25
2022-12-28T12:23:03.956Z,91.05
2022-12-28T12:24:03.901Z,91.46
2022-12-28T12:25:03.862Z,91.76
2022-12-28T12:26:03.872Z,92.17
2022-12-28T12:27:08.702Z,92.27
2022-12-28T12:28:04.855Z,92.17
2022-12-28T12:29:03.883Z,92.47
2022-12-28T12:30:03.800Z,91.35
2022-12-28T12:31:03.900Z,92.07
2022-12-28T12:32:03.831Z,92.27
2022-12-28T12:33:03.800Z,92.47
2022-12-28T12:34:03.762Z,92.37
2022-12-28T12:35:03.745Z,91.25
2022-12-28T12:36:03.733Z,91.96
2022-12-28T12:37:03.737Z,92.27
2022-12-28T12:38:03.706Z,92.27
2022-12-28T12:39:03.733Z,92.17
2022-12-28T12:40:03.669Z,91.76
2022-12-28T12:41:03.667Z,92.07
2022-12-28T12:42:03.641Z,92.62
2022-12-28T12:43:03.660Z,92.52
2022-12-28T12:44:03.664Z,92.62
2022-12-28T12:45:03.631Z,92.52
2022-12-28T12:46:03.662Z,92.42
2022-12-28T12:47:05.849Z,92.11
2022-12-28T12:48:03.576Z,92.21
2022-12-28T12:49:03.596Z,92.21
2022-12-28T12:50:03.551Z,92.21
2022-12-28T12:51:03.522Z,91.39
2022-12-28T12:52:03.517Z,91.70
2022-12-28T12:53:03.518Z,92.01
2022-12-28T12:54:03.508Z,91.29
2022-12-28T12:55:03.488Z,92.11